11:31
Airports
Links
Donate
Help keep this website running!
PayPal
Bitcoin
METAR
KELO 201115Z AUTO 02004KT 2 1/2SM -SN BKN007 OVC018 M16/M18 A2992 RMK AO2
Current Weather Conditions at KELO
IFR 11:15:00 20-02-18
Automated station, no observer
Altimeter:29.92 hg
Temp:-16.0°cf
Dew point:-18.0°c -0°f
Wind:4 knots, 4.6 mph, 2 m/s, from 20°
Visibility:2.5 statute miles
1800(OVC) Overcast
700(BKN) Broken
Past METAR reports
IFR 10:55:00 20-02-18
Automated station, no observer
Altimeter:29.92 hg
Temp:-16.0°cf
Dew point:-18.0°c -0°f
Wind:4 knots, 4.6 mph, 2 m/s, from 20°
Visibility:2.0 statute miles
2200(OVC) Overcast
500(BKN) Broken
KELO 201055Z AUTO 02004KT 2SM -SN BKN005 OVC022 M16/M18 A2992 RMK AO2
IFR 10:35:00 20-02-18
Automated station, no observer
Altimeter:29.92 hg
Temp:-16.0°cf
Dew point:-18.0°c -0°f
Wind:4 knots, 4.6 mph, 2 m/s, from 40°
Visibility:2.0 statute miles
2000(OVC) Overcast
1000(BKN) Broken
500(BKN) Broken
KELO 201035Z AUTO 04004KT 2SM -SN BKN005 BKN010 OVC020 M16/M18 A2992 RMK AO2
IFR 10:15:00 20-02-18
Automated station, no observer
Altimeter:29.92 hg
Temp:-16.0°cf
Dew point:-18.0°c -0°f
Wind:5 knots, 5.8 mph, 3 m/s, from 20°
Visibility:2.5 statute miles
1800(OVC) Overcast
KELO 201015Z AUTO 02005KT 2 1/2SM -SN OVC018 M16/M18 A2992 RMK AO2
IFR 09:55:00 20-02-18
Automated station, no observer
Altimeter:29.95 hg
Temp:-16.0°cf
Dew point:-18.0°c -0°f
Wind:3 knots, 3.5 mph, 2 m/s, from 10°
Visibility:1.75 statute miles
1800(OVC) Overcast
1300(BKN) Broken
500(SCT) Scattered
KELO 200955Z AUTO 01003KT 1 3/4SM -SN SCT005 BKN013 OVC018 M16/M18 A2995 RMK AO2
IFR 09:35:00 20-02-18
Automated station, no observer
Altimeter:29.94 hg
Temp:-16.0°cf
Dew point:-18.0°c -0°f
Wind:3 knots, 3.5 mph, 2 m/s, from 10°
Visibility:2.0 statute miles
1100(OVC) Overcast
500(SCT) Scattered
KELO 200935Z AUTO 01003KT 2SM -SN SCT005 OVC011 M16/M18 A2994 RMK AO2
IFR 09:15:00 20-02-18
Automated station, no observer
Altimeter:29.95 hg
Temp:-16.0°cf
Dew point:-18.0°c -0°f
Wind:0 knots, 0 mph, 0 m/s,
Variable direction
Visibility:1.25 statute miles
1100(OVC) Overcast
500(BKN) Broken
KELO 200915Z AUTO 00000KT 1 1/4SM -SN BKN005 OVC011 M16/M18 A2995 RMK AO2
TAF
No TAF for KELO
Forecast at KELO
No Forecast Reports for KELO